Time;durP1;ratioP1;P1;durP2;ratioP2;P2;SDS_P1;SDS_P2;PMS_P1;PMS_P2;Temp;Humidity;BMP_temperature;BMP_pressure;BME280_temperature;BME280_humidity;BME280_pressure;Samples;Min_cycle;Max_cycle;Signal;HPM_P1;HPM_P2
2024/01/08 00:00:17;;;;;;;3.20;2.40;;;;;;;-1.83;100.00;98498.81;5113736;28;20471;-74
2024/01/08 00:02:46;;;;;;;2.43;2.10;;;;;;;-1.83;100.00;98504.00;5114071;28;20435;-74
2024/01/08 00:05:14;;;;;;;2.60;2.33;;;;;;;-1.81;100.00;98502.09;5113947;28;20436;-74
2024/01/08 00:07:40;;;;;;;2.57;2.10;;;;;;;-1.72;100.00;98505.72;5113867;28;20493;-74
2024/01/08 00:10:07;;;;;;;2.43;1.90;;;;;;;-1.80;100.00;98508.13;5113857;28;20450;-74
2024/01/08 00:12:35;;;;;;;2.20;2.00;;;;;;;-1.81;100.00;98507.28;5114162;28;20441;-74
2024/01/08 00:15:08;;;;;;;2.10;1.70;;;;;;;-1.77;100.00;98511.28;5113823;28;20436;-74
2024/01/08 00:17:36;;;;;;;2.60;2.40;;;;;;;-1.91;100.00;98503.84;5113782;28;20515;-74
2024/01/08 00:20:07;;;;;;;2.17;1.97;;;;;;;-1.90;100.00;98502.06;5113580;28;20558;-74
2024/01/08 00:22:36;;;;;;;2.20;2.00;;;;;;;-1.79;100.00;98505.41;5113648;28;20500;-74
2024/01/08 00:25:06;;;;;;;2.23;2.03;;;;;;;-1.76;100.00;98505.13;5113608;28;20436;-74
2024/01/08 00:27:34;;;;;;;2.63;2.20;;;;;;;-1.79;100.00;98507.16;5113633;28;20446;-74
2024/01/08 00:30:02;;;;;;;2.47;2.10;;;;;;;-1.76;100.00;98509.53;5113491;28;20478;-74
2024/01/08 00:32:31;;;;;;;2.30;2.10;;;;;;;-1.78;100.00;98511.41;5113598;28;20855;-74
2024/01/08 00:34:57;;;;;;;2.80;2.60;;;;;;;-1.79;100.00;98509.78;5113527;28;20435;-74
2024/01/08 00:37:24;;;;;;;2.17;1.97;;;;;;;-1.85;100.00;98505.91;5113585;28;20435;-74
2024/01/08 00:39:50;;;;;;;2.53;2.33;;;;;;;-1.76;100.00;98519.94;5113629;28;20479;-74
2024/01/08 00:42:16;;;;;;;2.03;1.87;;;;;;;-1.76;100.00;98512.94;5114780;28;20442;-74
2024/01/08 00:44:43;;;;;;;3.03;2.43;;;;;;;-1.73;100.00;98515.28;5113932;28;20427;-74
2024/01/08 00:47:09;;;;;;;2.50;2.00;;;;;;;-1.73;100.00;98514.44;5114138;28;20442;-73
2024/01/08 00:49:35;;;;;;;2.20;2.00;;;;;;;-1.83;100.00;98508.38;5113573;28;20463;-73
2024/01/08 00:52:02;;;;;;;2.60;2.40;;;;;;;-1.85;100.00;98515.53;5113198;28;20435;-73
2024/01/08 00:54:28;;;;;;;3.17;2.27;;;;;;;-1.78;100.00;98512.25;5113680;28;20439;-74
2024/01/08 00:56:54;;;;;;;2.43;2.23;;;;;;;-1.75;100.00;98514.59;5116994;28;20445;-74
2024/01/08 00:59:21;;;;;;;3.27;2.33;;;;;;;-1.76;100.00;98507.72;5117393;28;20454;-74
2024/01/08 01:01:47;;;;;;;3.60;2.50;;;;;;;-1.75;100.00;98516.38;5117340;28;20474;-74
2024/01/08 01:04:13;;;;;;;3.43;2.63;;;;;;;-1.79;100.00;98509.78;5117697;28;20432;-74
2024/01/08 01:06:40;;;;;;;2.87;2.27;;;;;;;-1.83;100.00;98514.44;5117519;28;20491;-74
2024/01/08 01:09:08;;;;;;;2.53;2.33;;;;;;;-1.77;100.00;98511.28;5117477;28;20515;-74
2024/01/08 01:11:34;;;;;;;2.57;2.37;;;;;;;-1.77;100.00;98523.50;5117241;28;20432;-74
2024/01/08 01:14:01;;;;;;;2.60;2.40;;;;;;;-1.68;100.00;98517.50;5116970;28;20428;-74
2024/01/08 01:16:29;;;;;;;2.67;2.47;;;;;;;-1.71;100.00;98518.56;5117214;28;20522;-74
2024/01/08 01:18:57;;;;;;;3.13;2.83;;;;;;;-1.72;100.00;98519.53;5117077;27;20432;-74
2024/01/08 01:21:24;;;;;;;3.30;3.00;;;;;;;-1.68;100.00;98517.50;5116490;28;20997;-74
2024/01/08 01:23:52;;;;;;;2.80;2.50;;;;;;;-1.63;100.00;98525.75;5116774;28;20917;-74
2024/01/08 01:26:18;;;;;;;3.03;2.60;;;;;;;-1.73;100.00;98524.88;5116963;27;20476;-74
2024/01/08 01:28:45;;;;;;;2.73;2.53;;;;;;;-1.72;100.00;98524.75;5116584;28;21006;-74
2024/01/08 01:31:11;;;;;;;2.57;2.37;;;;;;;-1.70;100.00;98522.84;5117593;28;20465;-74
2024/01/08 01:33:38;;;;;;;3.07;2.70;;;;;;;-1.74;100.00;98524.06;5116987;28;20431;-74
2024/01/08 01:36:05;;;;;;;3.10;2.80;;;;;;;-1.67;100.00;98530.41;5117325;28;20459;-74
2024/01/08 01:38:36;;;;;;;3.00;2.70;;;;;;;-1.65;100.00;98538.09;5116522;28;20442;-74
2024/01/08 01:41:04;;;;;;;3.33;2.83;;;;;;;-1.62;100.00;98528.22;5116275;28;20966;-74
2024/01/08 01:43:33;;;;;;;3.03;2.73;;;;;;;-1.58;100.00;98529.59;5116237;28;20439;-74
2024/01/08 01:46:13;;;;;;;3.13;2.80;;;;;;;-1.65;100.00;98530.28;5116269;28;20435;-74
2024/01/08 01:48:42;;;;;;;3.77;3.07;;;;;;;-1.68;100.00;98523.53;5116141;28;20548;-74
2024/01/08 01:51:21;;;;;;;3.57;3.13;;;;;;;-1.60;100.00;98528.94;5116172;28;20452;-74
2024/01/08 01:53:50;;;;;;;3.53;3.10;;;;;;;-1.66;100.00;98526.81;5116337;28;20781;-74
2024/01/08 01:56:21;;;;;;;3.37;3.03;;;;;;;-1.60;100.00;98525.47;5116414;28;20441;-74
2024/01/08 01:58:50;;;;;;;3.37;3.07;;;;;;;-1.61;100.00;98534.25;5116151;27;20452;-74
2024/01/08 02:01:19;;;;;;;3.20;2.60;;;;;;;-1.74;100.00;98525.84;5116009;28;20483;-74
2024/01/08 02:03:48;;;;;;;3.17;2.87;;;;;;;-1.66;100.00;98526.81;5116398;28;20428;-74
2024/01/08 02:06:18;;;;;;;3.03;2.60;;;;;;;-1.58;100.00;98520.97;5115630;28;20548;-74
2024/01/08 02:08:45;;;;;;;3.67;3.23;;;;;;;-1.62;100.00;98522.19;5116767;28;20432;-74
2024/01/08 02:11:11;;;;;;;3.13;2.87;;;;;;;-1.68;100.00;98525.31;5116343;28;20498;-74
2024/01/08 02:13:38;;;;;;;3.03;2.83;;;;;;;-1.66;100.00;98521.63;5116269;28;20427;-74
2024/01/08 02:16:04;;;;;;;3.30;3.03;;;;;;;-1.64;100.00;98524.94;5115922;28;20435;-74
2024/01/08 02:18:31;;;;;;;3.63;3.30;;;;;;;-1.63;100.00;98517.94;5115763;28;20435;-74
2024/01/08 02:20:57;;;;;;;4.20;3.07;;;;;;;-1.58;100.00;98521.78;5116031;28;20486;-74
2024/01/08 02:23:24;;;;;;;3.17;2.80;;;;;;;-1.60;100.00;98505.47;5115969;28;20450;-74
2024/01/08 02:25:50;;;;;;;3.13;2.83;;;;;;;-1.63;100.00;98510.94;5116129;28;20442;-74
2024/01/08 02:28:17;;;;;;;4.50;3.50;;;;;;;-1.72;100.00;98511.72;5116144;28;20438;-74
2024/01/08 02:30:43;;;;;;;2.90;2.63;;;;;;;-1.65;100.00;98512.84;5115631;28;20461;-74
2024/01/08 02:33:09;;;;;;;3.30;3.00;;;;;;;-1.62;100.00;98502.16;5115974;28;20435;-74
2024/01/08 02:35:36;;;;;;;2.90;2.70;;;;;;;-1.60;100.00;98507.22;5115898;28;20423;-74
2024/01/08 02:38:03;;;;;;;3.37;2.80;;;;;;;-1.64;100.00;98500.63;5115843;28;20432;-74
2024/01/08 02:40:29;;;;;;;3.40;3.10;;;;;;;-1.68;100.00;98501.84;5115367;28;20977;-74
2024/01/08 02:42:55;;;;;;;3.10;2.80;;;;;;;-1.71;100.00;98502.94;5115775;28;20438;-74
2024/01/08 02:45:22;;;;;;;3.83;3.20;;;;;;;-1.66;100.00;98502.56;5115413;28;20926;-74
2024/01/08 02:47:48;;;;;;;3.77;3.27;;;;;;;-1.62;100.00;98506.56;5115720;28;20428;-74
2024/01/08 02:50:14;;;;;;;3.17;2.80;;;;;;;-1.56;100.00;98506.00;5115785;28;20458;-74
2024/01/08 02:52:43;;;;;;;3.30;3.00;;;;;;;-1.54;100.00;98512.75;5116354;28;20436;-74
2024/01/08 02:55:10;;;;;;;4.07;3.10;;;;;;;-1.57;100.00;98523.44;5115513;28;20485;-74
2024/01/08 02:57:37;;;;;;;3.10;2.87;;;;;;;-1.56;100.00;98512.06;5115489;28;20438;-74
2024/01/08 03:00:04;;;;;;;3.60;3.10;;;;;;;-1.60;100.00;98515.91;5115455;28;20451;-74
2024/01/08 03:02:31;;;;;;;3.27;2.97;;;;;;;-1.49;100.00;98513.16;5115427;28;20484;-74
2024/01/08 03:04:58;;;;;;;3.20;2.90;;;;;;;-1.64;100.00;98521.47;5115036;28;20443;-74
2024/01/08 03:07:24;;;;;;;2.90;2.70;;;;;;;-1.60;100.00;98522.88;5115316;28;20438;-74
2024/01/08 03:09:51;;;;;;;2.70;2.47;;;;;;;-1.56;100.00;98526.88;5115378;28;20962;-74
2024/01/08 03:12:17;;;;;;;2.60;2.23;;;;;;;-1.60;100.00;98531.53;5115568;28;20423;-74
2024/01/08 03:14:44;;;;;;;2.60;2.40;;;;;;;-1.68;100.00;98527.91;5115144;28;20435;-74
2024/01/08 03:17:10;;;;;;;2.50;2.30;;;;;;;-1.67;100.00;98533.00;5114745;28;20436;-74
2024/01/08 03:19:37;;;;;;;2.90;2.70;;;;;;;-1.63;100.00;98528.38;5114200;28;20524;-74
2024/01/08 03:22:04;;;;;;;2.93;2.70;;;;;;;-1.68;100.00;98528.75;5114463;28;20485;-74
2024/01/08 03:24:31;;;;;;;2.97;2.60;;;;;;;-1.62;100.00;98528.22;5114696;28;20539;-74
2024/01/08 03:26:57;;;;;;;2.97;2.67;;;;;;;-1.62;100.00;98532.63;5114642;28;20435;-74
2024/01/08 03:29:24;;;;;;;2.67;2.47;;;;;;;-1.66;100.00;98537.25;5114774;28;20461;-74
2024/01/08 03:31:51;;;;;;;3.30;3.00;;;;;;;-1.67;100.00;98533.00;5114771;27;20206;-74
2024/01/08 03:34:17;;;;;;;2.53;2.33;;;;;;;-1.63;100.00;98526.56;5114429;28;20447;-74
2024/01/08 03:36:50;;;;;;;3.10;2.80;;;;;;;-1.64;100.00;98526.69;5114345;28;20437;-74
2024/01/08 03:39:17;;;;;;;3.63;2.80;;;;;;;-1.53;100.00;98526.63;5114525;28;20832;-74
2024/01/08 03:41:44;;;;;;;2.80;2.60;;;;;;;-1.64;100.00;98524.09;5114004;28;20468;-74
2024/01/08 03:44:13;;;;;;;3.27;2.97;;;;;;;-1.60;100.00;98520.25;5114432;28;20432;-74
2024/01/08 03:46:40;;;;;;;3.43;2.77;;;;;;;-1.61;100.00;98522.06;5114162;28;20446;-74
2024/01/08 03:49:06;;;;;;;2.80;2.60;;;;;;;-1.61;100.00;98516.84;5114334;28;20432;-74
2024/01/08 03:51:34;;;;;;;3.00;2.80;;;;;;;-1.59;100.00;98520.13;5115148;28;20443;-74
2024/01/08 03:54:01;;;;;;;4.60;3.30;;;;;;;-1.61;100.00;98524.69;5114206;28;20447;-74
2024/01/08 03:56:27;;;;;;;3.67;3.30;;;;;;;-1.56;100.00;98521.66;5113626;28;20439;-74
2024/01/08 03:58:53;;;;;;;3.43;3.13;;;;;;;-1.48;100.00;98527.03;5113421;28;20441;-74
2024/01/08 04:01:20;;;;;;;3.60;3.30;;;;;;;-1.60;100.00;98528.94;5113411;28;20471;-74
2024/01/08 04:03:46;;;;;;;3.57;3.27;;;;;;;-1.57;100.00;98520.00;5113349;28;20427;-74
2024/01/08 04:06:12;;;;;;;3.77;3.20;;;;;;;-1.49;100.00;98533.22;5113577;28;20431;-74
2024/01/08 04:08:39;;;;;;;3.03;2.73;;;;;;;-1.51;100.00;98524.69;5113168;28;20435;-74
2024/01/08 04:11:05;;;;;;;4.07;3.40;;;;;;;-1.53;100.00;98516.19;5112909;28;20447;-74
2024/01/08 04:13:32;;;;;;;3.30;3.10;;;;;;;-1.54;100.00;98525.78;5113412;28;20432;-74
2024/01/08 04:15:58;;;;;;;3.30;3.10;;;;;;;-1.54;100.00;98528.38;5112953;28;20435;-74
2024/01/08 04:18:25;;;;;;;3.67;3.37;;;;;;;-1.56;100.00;98534.69;5113722;28;20488;-74
2024/01/08 04:20:51;;;;;;;3.90;2.97;;;;;;;-1.65;100.00;98528.50;5113191;28;20479;-74
2024/01/08 04:23:17;;;;;;;3.63;2.90;;;;;;;-1.65;100.00;98533.72;5112985;28;20439;-74
2024/01/08 04:25:44;;;;;;;3.20;2.90;;;;;;;-1.70;100.00;98529.84;5112873;28;20551;-74
2024/01/08 04:28:10;;;;;;;3.00;2.70;;;;;;;-1.65;100.00;98525.91;5113212;28;20494;-74
2024/01/08 04:30:36;;;;;;;2.87;2.67;;;;;;;-1.73;100.00;98535.31;5117890;28;20447;-74
2024/01/08 04:33:03;;;;;;;2.70;2.50;;;;;;;-1.74;100.00;98529.28;5119846;28;20520;-74
2024/01/08 04:35:29;;;;;;;3.67;2.67;;;;;;;-1.70;100.00;98525.47;5119877;27;20435;-74
2024/01/08 04:37:55;;;;;;;2.77;2.57;;;;;;;-1.77;100.00;98529.53;5119868;28;20430;-74
2024/01/08 04:40:22;;;;;;;2.70;2.47;;;;;;;-1.76;100.00;98536.41;5119565;28;20558;-74
2024/01/08 04:42:48;;;;;;;3.87;2.80;;;;;;;-1.80;100.00;98542.81;5119645;28;20481;-74
2024/01/08 04:45:15;;;;;;;2.70;2.40;;;;;;;-1.73;100.00;98541.34;5120446;28;20431;-74
2024/01/08 04:47:41;;;;;;;3.43;2.60;;;;;;;-1.80;100.00;98545.41;5120323;27;20435;-74
2024/01/08 04:50:08;;;;;;;3.67;3.00;;;;;;;-1.83;100.00;98545.72;5120348;28;20447;-74
2024/01/08 04:52:34;;;;;;;2.77;2.57;;;;;;;-1.86;100.00;98555.53;5120368;27;20474;-74
2024/01/08 04:55:00;;;;;;;3.23;2.60;;;;;;;-1.86;100.00;98558.16;5120424;28;20431;-74
2024/01/08 04:57:26;;;;;;;3.07;2.77;;;;;;;-1.89;100.00;98554.03;5120498;28;20431;-74
2024/01/08 04:59:52;;;;;;;3.10;2.80;;;;;;;-1.87;100.00;98554.72;5120530;28;20512;-74
2024/01/08 05:02:18;;;;;;;3.07;2.77;;;;;;;-1.82;100.00;98557.78;5119849;28;20697;-74
2024/01/08 05:04:45;;;;;;;4.00;3.30;;;;;;;-1.84;100.00;98551.03;5120098;28;20449;-73
2024/01/08 05:07:12;;;;;;;3.50;3.13;;;;;;;-1.76;100.00;98552.03;5120032;28;20514;-73
2024/01/08 05:09:39;;;;;;;3.30;3.00;;;;;;;-1.86;100.00;98552.94;5120132;27;20512;-73
2024/01/08 05:12:06;;;;;;;3.37;2.47;;;;;;;-1.85;100.00;98552.81;5119829;27;20435;-73
2024/01/08 05:14:32;;;;;;;2.83;2.63;;;;;;;-1.88;100.00;98557.47;5119717;27;20443;-73
2024/01/08 05:16:58;;;;;;;3.73;2.77;;;;;;;-1.85;100.00;98558.03;5120126;28;20438;-73
2024/01/08 05:19:25;;;;;;;3.97;2.87;;;;;;;-1.89;100.00;98551.41;5120271;28;20451;-74
2024/01/08 05:21:53;;;;;;;3.70;2.83;;;;;;;-1.84;100.00;98558.84;5119644;28;20482;-74
2024/01/08 05:24:19;;;;;;;2.80;2.57;;;;;;;-1.91;100.00;98566.38;5119870;28;20443;-74
2024/01/08 05:26:45;;;;;;;4.10;3.00;;;;;;;-1.95;100.00;98564.13;5119664;28;20937;-74
2024/01/08 05:29:12;;;;;;;3.23;2.90;;;;;;;-1.95;100.00;98564.97;5120251;28;20451;-74
2024/01/08 05:31:38;;;;;;;3.83;3.20;;;;;;;-2.01;100.00;98557.69;5120192;28;20433;-74
2024/01/08 05:34:04;;;;;;;4.97;3.50;;;;;;;-1.94;100.00;98569.22;5120214;28;20435;-74
2024/01/08 05:36:31;;;;;;;4.00;3.10;;;;;;;-1.87;100.00;98559.09;5120172;28;20438;-74
2024/01/08 05:38:59;;;;;;;3.50;3.17;;;;;;;-1.88;100.00;98563.50;5119749;28;20427;-74
2024/01/08 05:41:26;;;;;;;4.80;3.30;;;;;;;-1.93;100.00;98570.91;5117254;28;20475;-74
2024/01/08 05:43:52;;;;;;;3.40;2.93;;;;;;;-1.90;100.00;98575.81;5116278;28;20862;-74
2024/01/08 05:46:18;;;;;;;3.93;2.90;;;;;;;-1.94;100.00;98571.81;5116143;28;20806;-74
2024/01/08 05:48:45;;;;;;;3.80;3.20;;;;;;;-1.92;100.00;98576.91;5116485;28;20446;-74
2024/01/08 05:51:11;;;;;;;2.83;2.53;;;;;;;-1.98;100.00;98578.25;5116056;28;20444;-74
2024/01/08 05:53:38;;;;;;;3.97;2.57;;;;;;;-2.03;100.00;98575.19;5116229;28;20427;-74
2024/01/08 05:56:04;;;;;;;3.53;3.03;;;;;;;-1.99;100.00;98576.59;5115936;28;20431;-74
2024/01/08 05:58:32;;;;;;;4.27;3.10;;;;;;;-2.00;100.00;98587.13;5115951;28;20436;-74
2024/01/08 06:01:00;;;;;;;3.10;2.60;;;;;;;-1.99;100.00;98576.59;5115861;28;20459;-74
2024/01/08 06:03:30;;;;;;;3.10;2.40;;;;;;;-2.02;100.00;98584.69;5115718;28;20450;-74
2024/01/08 06:05:59;;;;;;;3.97;2.90;;;;;;;-2.05;100.00;98584.94;5115543;28;20463;-74
2024/01/08 06:08:31;;;;;;;2.97;2.67;;;;;;;-2.06;100.00;98585.91;5115535;28;20530;-74
2024/01/08 06:11:00;;;;;;;3.00;2.70;;;;;;;-2.03;100.00;98590.03;5115615;28;20458;-74
2024/01/08 06:13:27;;;;;;;2.80;2.60;;;;;;;-2.02;100.00;98591.66;5115728;28;20438;-74
2024/01/08 06:15:56;;;;;;;3.30;3.00;;;;;;;-2.04;100.00;98591.78;5115337;28;20464;-74
2024/01/08 06:18:27;;;;;;;2.90;2.43;;;;;;;-2.07;100.00;98597.25;5115293;28;20435;-74
2024/01/08 06:20:54;;;;;;;3.93;3.30;;;;;;;-1.99;100.00;98597.44;5115334;28;20551;-74
2024/01/08 06:23:23;;;;;;;4.23;2.50;;;;;;;-1.95;100.00;98608.41;5115123;28;21007;-74
2024/01/08 06:25:51;;;;;;;2.70;2.50;;;;;;;-1.97;100.00;98607.72;5114894;28;20443;-74
2024/01/08 06:28:19;;;;;;;3.50;2.50;;;;;;;-1.97;100.00;98605.97;5115082;28;20478;-74
2024/01/08 06:30:48;;;;;;;3.70;2.70;;;;;;;-2.02;100.00;98599.47;5115844;28;20451;-74
2024/01/08 06:33:15;;;;;;;4.27;2.50;;;;;;;-2.11;100.00;98603.69;5114959;28;20749;-74
2024/01/08 06:35:42;;;;;;;3.80;3.30;;;;;;;-2.05;100.00;98604.94;5115367;28;20444;-74
2024/01/08 06:38:12;;;;;;;4.17;2.93;;;;;;;-2.06;100.00;98600.69;5115222;28;20454;-74
2024/01/08 06:40:41;;;;;;;4.13;2.70;;;;;;;-2.05;100.00;98592.75;5114953;28;20540;-74
2024/01/08 06:43:12;;;;;;;3.73;2.77;;;;;;;-1.98;100.00;98606.91;5114228;28;20976;-74
2024/01/08 06:45:40;;;;;;;3.40;2.50;;;;;;;-2.02;100.00;98599.47;5114793;28;20426;-74
2024/01/08 06:48:09;;;;;;;3.67;2.73;;;;;;;-2.05;100.00;98597.97;5115184;28;20858;-74
2024/01/08 06:50:36;;;;;;;3.13;2.60;;;;;;;-2.05;100.00;98595.34;5114762;28;20455;-74
2024/01/08 06:53:03;;;;;;;2.30;2.10;;;;;;;-2.09;100.00;98600.94;5113606;28;20851;-74
2024/01/08 06:55:30;;;;;;;3.43;2.77;;;;;;;-2.07;100.00;98604.25;5114957;27;20435;-74
2024/01/08 06:57:56;;;;;;;2.93;2.63;;;;;;;-2.03;100.00;98609.06;5114821;28;20471;-74
2024/01/08 07:00:23;;;;;;;3.53;2.70;;;;;;;-2.06;100.00;98614.53;5114985;28;20443;-74
2024/01/08 07:02:50;;;;;;;3.27;2.63;;;;;;;-2.18;100.00;98612.09;5114272;28;20471;-74
2024/01/08 07:05:18;;;;;;;2.90;2.60;;;;;;;-2.12;100.00;98622.84;5114870;28;20434;-74
2024/01/08 07:07:44;;;;;;;3.80;2.70;;;;;;;-2.14;100.00;98609.13;5115109;28;20486;-76
2024/01/08 07:10:12;;;;;;;3.50;3.00;;;;;;;-2.12;100.00;98609.81;5114963;28;20999;-74
2024/01/08 07:12:38;;;;;;;3.73;2.80;;;;;;;-2.11;100.00;98616.72;5114704;28;20527;-74
2024/01/08 07:15:05;;;;;;;3.30;2.70;;;;;;;-2.10;100.00;98614.91;5114306;28;20510;-74
2024/01/08 07:17:32;;;;;;;3.27;2.83;;;;;;;-2.10;100.00;98605.34;5114719;28;20502;-74
2024/01/08 07:19:58;;;;;;;3.20;2.60;;;;;;;-2.14;100.00;98614.34;5114485;28;20471;-74
2024/01/08 07:22:24;;;;;;;3.77;2.87;;;;;;;-1.99;100.00;98615.66;5114091;28;20483;-74
2024/01/08 07:24:51;;;;;;;2.80;2.60;;;;;;;-2.02;100.00;98615.94;5113779;28;20451;-74
2024/01/08 07:27:17;;;;;;;2.90;2.60;;;;;;;-2.03;100.00;98605.66;5114092;28;20437;-74
2024/01/08 07:29:45;;;;;;;4.20;2.80;;;;;;;-2.11;100.00;98611.50;5113941;28;20509;-74
2024/01/08 07:32:13;;;;;;;4.63;2.77;;;;;;;-2.00;100.00;98611.41;5113802;28;20982;-75
2024/01/08 07:34:40;;;;;;;3.67;2.37;;;;;;;-1.96;100.00;98615.44;5114416;28;20828;-75
2024/01/08 07:37:08;;;;;;;3.23;2.63;;;;;;;-1.96;100.00;98614.59;5113852;28;20428;-75
2024/01/08 07:39:36;;;;;;;3.13;2.83;;;;;;;-2.09;100.00;98612.19;5113886;28;20546;-75
2024/01/08 07:42:03;;;;;;;3.30;2.60;;;;;;;-1.96;100.00;98618.03;5113470;28;20475;-75
2024/01/08 07:44:30;;;;;;;3.10;2.40;;;;;;;-1.97;100.00;98615.56;5113881;28;20431;-74
2024/01/08 07:46:56;;;;;;;3.43;2.93;;;;;;;-2.00;100.00;98621.00;5114337;28;20514;-76
2024/01/08 07:49:22;;;;;;;3.50;2.83;;;;;;;-1.95;100.00;98618.84;5113823;28;20970;-76
2024/01/08 07:51:49;;;;;;;3.27;2.97;;;;;;;-1.88;100.00;98626.03;5114132;28;20919;-76
2024/01/08 07:54:15;;;;;;;3.77;3.00;;;;;;;-1.93;100.00;98620.41;5114888;28;20531;-75
2024/01/08 07:56:41;;;;;;;3.63;2.90;;;;;;;-1.98;100.00;98639.97;5113501;28;20522;-75
2024/01/08 07:59:08;;;;;;;3.60;3.30;;;;;;;-1.85;100.00;98638.00;5114795;28;20432;-74
2024/01/08 08:01:34;;;;;;;4.13;3.00;;;;;;;-1.82;100.00;98643.78;5114133;28;20443;-74
2024/01/08 08:04:00;;;;;;;3.67;3.27;;;;;;;-1.90;100.00;98643.56;5113531;28;20435;-75
2024/01/08 08:06:27;;;;;;;3.43;3.13;;;;;;;-1.85;100.00;98641.41;5113463;28;20436;-75
2024/01/08 08:08:54;;;;;;;4.33;3.10;;;;;;;-1.85;100.00;98645.81;5113859;28;20443;-74
2024/01/08 08:11:20;;;;;;;4.13;3.07;;;;;;;-1.73;100.00;98649.97;5113895;28;20435;-73
2024/01/08 08:13:47;;;;;;;4.87;3.17;;;;;;;-1.83;100.00;98647.34;5113728;28;20434;-75
2024/01/08 08:16:13;;;;;;;5.40;3.10;;;;;;;-1.69;100.00;98649.59;5113809;28;20435;-75
2024/01/08 08:18:40;;;;;;;5.90;3.00;;;;;;;-1.62;100.00;98655.94;5113879;28;20440;-75
2024/01/08 08:21:06;;;;;;;3.10;2.80;;;;;;;-1.64;100.00;98654.41;5113716;28;20520;-75
2024/01/08 08:23:33;;;;;;;2.97;2.67;;;;;;;-1.65;100.00;98658.00;5113906;28;20478;-75
2024/01/08 08:26:00;;;;;;;3.50;3.20;;;;;;;-1.60;100.00;98656.66;5113824;28;20438;-75
2024/01/08 08:28:26;;;;;;;4.40;3.20;;;;;;;-1.58;100.00;98659.16;5113336;28;20446;-75
2024/01/08 08:30:53;;;;;;;3.87;3.40;;;;;;;-1.67;100.00;98652.91;5113785;28;20453;-75
2024/01/08 08:33:19;;;;;;;2.77;2.57;;;;;;;-1.75;100.00;98651.91;5113222;28;20431;-75
2024/01/08 08:35:45;;;;;;;3.17;2.87;;;;;;;-1.76;100.00;98658.88;5113389;28;20526;-76
2024/01/08 08:38:12;;;;;;;3.30;2.97;;;;;;;-1.54;100.00;98661.34;5113638;28;20436;-75
2024/01/08 08:40:40;;;;;;;4.17;3.40;;;;;;;-1.55;100.00;98659.69;5113606;28;20498;-75
2024/01/08 08:43:07;;;;;;;3.73;3.13;;;;;;;-1.58;100.00;98662.56;5113068;28;20475;-75
2024/01/08 08:45:33;;;;;;;3.47;3.10;;;;;;;-1.45;100.00;98659.75;5113186;28;20539;-75
2024/01/08 08:47:59;;;;;;;3.50;3.03;;;;;;;-1.57;100.00;98674.63;5113730;28;20439;-75
2024/01/08 08:50:26;;;;;;;3.70;2.70;;;;;;;-1.53;100.00;98663.00;5113505;28;20447;-75
2024/01/08 08:52:52;;;;;;;3.87;2.67;;;;;;;-1.64;100.00;98663.09;5113442;28;20514;-76
2024/01/08 08:55:19;;;;;;;3.87;2.97;;;;;;;-1.53;100.00;98668.22;5113563;28;20445;-76
2024/01/08 08:57:45;;;;;;;3.40;2.63;;;;;;;-1.56;100.00;98673.69;5113214;28;20435;-76
2024/01/08 09:00:12;;;;;;;3.43;2.83;;;;;;;-1.57;100.00;98674.63;5112840;28;20466;-76
2024/01/08 09:02:38;;;;;;;4.10;3.27;;;;;;;-1.51;100.00;98674.13;5112980;28;20925;-76
2024/01/08 09:05:07;;;;;;;3.73;2.93;;;;;;;-1.54;100.00;98676.19;5113481;28;20438;-75
2024/01/08 09:07:34;;;;;;;3.83;2.70;;;;;;;-1.57;100.00;98681.66;5113299;28;20963;-75
2024/01/08 09:10:02;;;;;;;2.97;2.70;;;;;;;-1.39;100.00;98680.09;5113534;28;20977;-75
2024/01/08 09:12:28;;;;;;;2.87;2.20;;;;;;;-1.49;100.00;98687.84;5113000;28;20840;-75
2024/01/08 09:14:55;;;;;;;2.70;2.50;;;;;;;-1.58;100.00;98691.22;5113274;28;20427;-75
2024/01/08 09:17:21;;;;;;;4.13;2.73;;;;;;;-1.60;100.00;98685.34;5115528;28;20443;-74
2024/01/08 09:19:49;;;;;;;3.90;2.63;;;;;;;-1.41;100.00;98700.25;5117240;28;20451;-73
2024/01/08 09:22:16;;;;;;;2.63;2.43;;;;;;;-1.37;100.00;98688.59;5116381;28;20961;-74
2024/01/08 09:24:42;;;;;;;3.43;3.00;;;;;;;-1.41;100.00;98702.84;5117250;28;20431;-74
2024/01/08 09:27:08;;;;;;;4.40;2.57;;;;;;;-1.53;100.00;98704.72;5116795;28;20431;-74
2024/01/08 09:29:35;;;;;;;4.30;3.10;;;;;;;-1.48;100.00;98710.34;5116941;28;20451;-74
2024/01/08 09:32:02;;;;;;;4.20;3.00;;;;;;;-1.44;100.00;98714.38;5117240;28;20435;-74
2024/01/08 09:34:29;;;;;;;2.30;1.93;;;;;;;-1.66;100.00;98716.31;5117229;28;20775;-74
2024/01/08 09:36:56;;;;;;;4.70;2.73;;;;;;;-1.53;100.00;98716.94;5117082;28;20446;-74
2024/01/08 09:39:22;;;;;;;3.10;2.80;;;;;;;-1.57;100.00;98715.53;5116720;28;20508;-74
2024/01/08 09:41:49;;;;;;;3.73;2.50;;;;;;;-1.47;100.00;98719.88;5116750;28;20465;-74
2024/01/08 09:44:19;;;;;;;3.10;2.80;;;;;;;-1.38;100.00;98716.47;5116716;28;20498;-74
2024/01/08 09:46:50;;;;;;;3.97;3.03;;;;;;;-1.38;100.00;98719.09;5117031;28;20443;-74
2024/01/08 09:49:20;;;;;;;3.87;3.17;;;;;;;-1.56;100.00;98720.63;5117046;28;20452;-74
2024/01/08 09:51:47;;;;;;;3.37;2.80;;;;;;;-1.57;100.00;98718.13;5116567;28;20435;-75
2024/01/08 09:54:13;;;;;;;2.77;2.50;;;;;;;-1.57;100.00;98718.13;5116422;27;20778;-75
2024/01/08 09:56:41;;;;;;;3.27;2.77;;;;;;;-1.53;100.00;98722.97;5116788;28;20510;-75
2024/01/08 09:59:09;;;;;;;3.33;3.03;;;;;;;-1.63;100.00;98714.25;5115975;28;20436;-74
2024/01/08 10:01:35;;;;;;;3.17;2.87;;;;;;;-1.54;100.00;98723.13;5116125;28;20438;-75
2024/01/08 10:04:02;;;;;;;3.23;2.53;;;;;;;-1.46;100.00;98712.84;5115895;28;20497;-75
2024/01/08 10:06:29;;;;;;;3.93;3.20;;;;;;;-1.36;100.00;98716.34;5116210;28;20772;-75
2024/01/08 10:08:55;;;;;;;2.93;2.63;;;;;;;-1.32;100.00;98722.94;5116307;28;20428;-75
2024/01/08 10:11:22;;;;;;;3.87;3.20;;;;;;;-1.24;100.00;98715.31;5116612;27;20797;-75
2024/01/08 10:13:50;;;;;;;4.60;3.33;;;;;;;-1.33;100.00;98710.88;5116095;28;20439;-75
2024/01/08 10:16:16;;;;;;;4.30;3.67;;;;;;;-1.24;100.00;98713.53;5116078;28;20496;-74
2024/01/08 10:18:47;;;;;;;3.60;3.27;;;;;;;-1.21;100.00;98715.06;5115775;28;20810;-74
2024/01/08 10:21:15;;;;;;;5.80;2.63;;;;;;;-1.08;100.00;98713.88;5116276;28;20538;-74
2024/01/08 10:23:42;;;;;;;4.80;3.30;;;;;;;-1.08;100.00;98713.06;5116188;28;20777;-74
2024/01/08 10:26:12;;;;;;;4.20;3.20;;;;;;;-1.08;100.00;98718.28;5116204;28;20518;-74
2024/01/08 10:28:40;;;;;;;5.00;3.23;;;;;;;-1.17;100.00;98716.47;5115691;27;20518;-74
2024/01/08 10:31:08;;;;;;;4.87;3.30;;;;;;;-1.06;100.00;98717.19;5115782;27;20466;-74
2024/01/08 10:33:34;;;;;;;3.33;3.03;;;;;;;-1.11;100.00;98702.88;5115778;28;20463;-75
2024/01/08 10:36:04;;;;;;;3.30;2.97;;;;;;;-1.06;100.00;98704.16;5115640;28;20472;-75
2024/01/08 10:38:31;;;;;;;3.53;2.83;;;;;;;-1.04;100.00;98707.44;5115214;28;20523;-74
2024/01/08 10:41:00;;;;;;;5.07;3.40;;;;;;;-0.89;100.00;98705.31;5115380;28;20456;-74
2024/01/08 10:43:27;;;;;;;4.37;2.63;;;;;;;-0.87;100.00;98695.56;5115240;28;20520;-74
2024/01/08 10:45:58;;;;;;;3.50;2.73;;;;;;;-0.84;100.00;98703.13;5115085;28;20434;-75
2024/01/08 10:48:35;;;;;;;3.47;3.07;;;;;;;-0.88;100.00;98701.75;5115931;28;20422;-75
2024/01/08 10:51:06;;;;;;;4.07;2.63;;;;;;;-0.72;100.00;98699.47;5115287;28;20462;-75
2024/01/08 10:53:49;;;;;;;3.00;2.67;;;;;;;-0.71;100.00;98701.91;5115140;28;20416;-75
2024/01/08 10:56:20;;;;;;;4.83;2.70;;;;;;;-1.08;100.00;98700.84;5115578;27;20415;-75
2024/01/08 10:58:55;;;;;;;4.80;3.17;;;;;;;-0.73;100.00;98701.25;5115226;27;20465;-75
2024/01/08 11:01:22;;;;;;;4.27;2.70;;;;;;;-0.89;100.00;98694.88;5115501;28;20437;-75
2024/01/08 11:03:49;;;;;;;6.67;3.27;;;;;;;-0.75;100.00;98691.88;5115718;28;20475;-75
2024/01/08 11:06:16;;;;;;;3.27;2.67;;;;;;;-0.78;100.00;98694.75;5117749;28;20488;-75
2024/01/08 11:08:43;;;;;;;3.57;2.90;;;;;;;-0.78;100.00;98698.22;5115285;28;20431;-75
2024/01/08 11:11:11;;;;;;;3.33;2.83;;;;;;;-0.81;100.00;98692.44;5115386;28;20451;-75
2024/01/08 11:13:41;;;;;;;3.10;2.67;;;;;;;-0.90;100.00;98699.25;5114819;28;20445;-75
2024/01/08 11:16:08;;;;;;;4.27;3.10;;;;;;;-0.96;100.00;98694.56;5115149;28;20443;-76
2024/01/08 11:18:38;;;;;;;4.53;2.90;;;;;;;-0.82;100.00;98698.59;5115305;28;20554;-74
2024/01/08 11:21:04;;;;;;;3.47;3.17;;;;;;;-0.83;100.00;98695.19;5114590;28;20512;-74
2024/01/08 11:23:43;;;;;;;3.43;3.03;;;;;;;-0.85;100.00;98693.66;5114816;28;20479;-74